createdAt,value
2022-12-31T00:01:32.128Z,1.90
2022-12-31T00:03:59.070Z,2.60
2022-12-31T00:06:28.232Z,2.00
2022-12-31T00:08:58.969Z,2.15
2022-12-31T00:11:27.126Z,1.15
2022-12-31T00:13:54.351Z,1.58
2022-12-31T00:16:23.152Z,1.38
2022-12-31T00:18:51.943Z,1.58
2022-12-31T00:21:19.708Z,1.30
2022-12-31T00:23:47.248Z,0.85
2022-12-31T00:26:17.596Z,1.00
2022-12-31T00:28:45.389Z,1.20
2022-12-31T00:31:14.910Z,0.75
2022-12-31T00:33:42.093Z,2.05
2022-12-31T00:36:11.004Z,0.93
2022-12-31T00:38:39.208Z,0.80
2022-12-31T00:41:06.577Z,1.02
2022-12-31T00:43:35.180Z,0.45
2022-12-31T00:46:04.833Z,0.70
2022-12-31T00:48:32.665Z,2.22
2022-12-31T00:51:00.515Z,2.33
2022-12-31T00:53:28.303Z,0.63
2022-12-31T00:56:00.052Z,1.23
2022-12-31T00:58:26.849Z,1.17
2022-12-31T01:00:54.926Z,1.15
2022-12-31T01:03:21.962Z,0.88
2022-12-31T01:05:50.328Z,0.88
2022-12-31T01:08:19.855Z,1.35
2022-12-31T01:11:07.795Z,1.10
2022-12-31T01:13:35.072Z,2.20
2022-12-31T01:16:09.179Z,1.60
2022-12-31T01:18:36.388Z,2.05
2022-12-31T01:21:07.259Z,1.75
2022-12-31T01:23:34.652Z,2.33
2022-12-31T01:26:02.800Z,2.60
2022-12-31T01:28:31.892Z,1.60
2022-12-31T01:30:58.894Z,1.60
2022-12-31T01:33:27.100Z,2.58
2022-12-31T01:35:54.004Z,2.53
2022-12-31T01:38:20.728Z,1.60
2022-12-31T01:40:47.398Z,0.95
2022-12-31T01:43:17.071Z,1.48
2022-12-31T01:45:45.858Z,1.17
2022-12-31T01:48:16.087Z,1.00
2022-12-31T01:50:46.906Z,0.93
2022-12-31T01:53:15.174Z,0.82
2022-12-31T01:55:47.439Z,1.10
2022-12-31T01:58:19.077Z,2.20
2022-12-31T02:00:46.774Z,1.83
2022-12-31T02:03:13.886Z,1.70
2022-12-31T02:05:47.143Z,0.88
2022-12-31T02:08:14.397Z,1.50
2022-12-31T02:10:42.499Z,2.60
2022-12-31T02:13:09.962Z,1.10
2022-12-31T02:15:47.231Z,1.17
2022-12-31T02:18:24.797Z,1.45
2022-12-31T02:24:02.164Z,0.85
2022-12-31T02:26:49.953Z,1.83
2022-12-31T02:29:58.278Z,1.60
2022-12-31T02:32:33.739Z,0.82
2022-12-31T02:35:07.351Z,1.40
2022-12-31T02:37:37.054Z,1.05
2022-12-31T02:40:06.580Z,1.42
2022-12-31T02:42:33.243Z,0.82
2022-12-31T02:45:00.038Z,1.08
2022-12-31T02:47:41.881Z,0.93
2022-12-31T02:50:30.587Z,2.33
2022-12-31T02:53:08.123Z,1.23
2022-12-31T02:55:42.455Z,0.82
2022-12-31T02:58:14.811Z,1.25
2022-12-31T03:01:04.750Z,1.52
2022-12-31T03:03:33.232Z,1.33
2022-12-31T03:06:01.990Z,1.15
2022-12-31T03:08:28.860Z,0.70
2022-12-31T03:10:57.003Z,0.82
2022-12-31T03:13:24.972Z,0.77
2022-12-31T03:15:51.889Z,1.35
2022-12-31T03:18:39.534Z,2.13
2022-12-31T03:21:30.807Z,1.00
2022-12-31T03:24:16.565Z,1.00
2022-12-31T03:26:43.329Z,0.90
2022-12-31T03:29:10.041Z,1.13
2022-12-31T03:31:37.489Z,1.95
2022-12-31T03:34:05.758Z,1.48
2022-12-31T03:36:36.249Z,1.33
2022-12-31T03:39:03.155Z,1.70
2022-12-31T03:41:29.764Z,1.35
2022-12-31T03:43:56.496Z,1.23
2022-12-31T03:46:23.386Z,2.38
2022-12-31T03:48:50.095Z,1.73
2022-12-31T03:51:16.948Z,1.65
2022-12-31T03:53:45.039Z,2.15
2022-12-31T03:56:11.671Z,1.00
2022-12-31T03:58:38.344Z,1.50
2022-12-31T04:01:05.235Z,1.83
2022-12-31T04:03:32.043Z,1.77
2022-12-31T04:05:58.798Z,2.47
2022-12-31T04:08:25.891Z,2.38
2022-12-31T04:10:53.933Z,2.28
2022-12-31T04:13:20.622Z,4.10
2022-12-31T04:15:50.085Z,2.20
2022-12-31T04:18:16.822Z,2.75
2022-12-31T04:20:43.543Z,2.63
2022-12-31T04:23:10.309Z,2.47
2022-12-31T04:25:36.969Z,2.50
2022-12-31T04:28:05.199Z,1.85
2022-12-31T04:30:31.843Z,2.80
2022-12-31T04:32:58.598Z,2.10
2022-12-31T04:35:25.263Z,2.15
2022-12-31T04:37:52.021Z,2.08
2022-12-31T04:40:18.729Z,1.95
2022-12-31T04:42:45.469Z,2.97
2022-12-31T04:45:13.491Z,2.40
2022-12-31T04:47:40.277Z,1.83
2022-12-31T04:50:07.939Z,1.60
2022-12-31T04:52:40.531Z,1.80
2022-12-31T04:55:09.709Z,1.13
2022-12-31T04:57:36.368Z,1.45
2022-12-31T05:00:03.914Z,0.95
2022-12-31T05:02:32.004Z,1.42
2022-12-31T05:04:58.811Z,1.40
2022-12-31T05:07:25.415Z,1.55
2022-12-31T05:09:52.167Z,0.85
2022-12-31T05:12:19.177Z,0.60
2022-12-31T05:14:46.267Z,0.90
2022-12-31T05:17:12.988Z,0.75
2022-12-31T05:19:46.699Z,0.65
2022-12-31T05:22:39.416Z,0.80
2022-12-31T05:25:07.258Z,0.45
2022-12-31T05:27:34.175Z,0.45
2022-12-31T05:30:01.025Z,0.65
2022-12-31T05:32:28.139Z,0.50
2022-12-31T05:34:56.835Z,0.35
2022-12-31T05:37:23.769Z,0.28
2022-12-31T05:39:52.190Z,0.65
2022-12-31T05:42:18.917Z,0.28
2022-12-31T05:44:45.663Z,0.38
2022-12-31T05:47:12.313Z,0.10
2022-12-31T05:49:39.054Z,0.38
2022-12-31T05:52:07.992Z,0.43
2022-12-31T05:54:34.770Z,0.10
2022-12-31T05:57:01.745Z,0.95
2022-12-31T05:59:28.465Z,0.25
2022-12-31T06:01:55.159Z,0.35
2022-12-31T06:04:22.173Z,0.75
2022-12-31T06:06:49.285Z,0.30
2022-12-31T06:09:18.369Z,0.30
2022-12-31T06:11:45.641Z,0.10
2022-12-31T06:14:12.797Z,0.40
2022-12-31T06:16:40.085Z,0.38
2022-12-31T06:19:07.367Z,0.03
2022-12-31T06:21:34.142Z,0.40
2022-12-31T06:24:00.911Z,0.30
2022-12-31T06:26:28.970Z,0.20
2022-12-31T06:28:55.720Z,0.20
2022-12-31T06:31:22.755Z,0.25
2022-12-31T06:33:49.522Z,0.20
2022-12-31T06:36:16.920Z,0.38
2022-12-31T06:38:44.511Z,0.25
2022-12-31T06:41:14.966Z,0.40
2022-12-31T06:43:46.678Z,0.30
2022-12-31T06:46:16.132Z,0.00
2022-12-31T06:48:44.785Z,0.22
2022-12-31T06:51:17.349Z,0.25
2022-12-31T06:53:45.275Z,0.35
2022-12-31T06:56:15.944Z,0.20
2022-12-31T06:58:43.671Z,0.70
2022-12-31T07:01:37.335Z,0.35
2022-12-31T07:04:27.965Z,0.47
2022-12-31T07:07:02.748Z,0.50
2022-12-31T07:09:37.849Z,1.65
2022-12-31T07:12:12.347Z,0.43
2022-12-31T07:14:46.351Z,2.53
2022-12-31T07:17:26.738Z,0.65
2022-12-31T07:20:02.573Z,0.60
2022-12-31T07:22:29.797Z,1.38
2022-12-31T07:24:57.131Z,0.50
2022-12-31T07:27:59.543Z,0.70
2022-12-31T07:30:36.524Z,0.77
2022-12-31T07:33:28.885Z,0.50
2022-12-31T07:36:09.307Z,1.50
2022-12-31T07:38:41.047Z,1.08
2022-12-31T07:41:16.372Z,0.73
2022-12-31T07:43:53.554Z,1.27
2022-12-31T07:46:28.741Z,2.83
2022-12-31T07:48:58.103Z,0.70
2022-12-31T07:51:25.489Z,2.33
2022-12-31T07:53:52.659Z,0.98
2022-12-31T07:56:19.442Z,1.45
2022-12-31T07:58:59.614Z,0.77
2022-12-31T08:01:34.762Z,0.95
2022-12-31T08:04:09.624Z,2.28
2022-12-31T08:06:45.761Z,1.02
2022-12-31T08:09:26.303Z,1.25
2022-12-31T08:11:56.688Z,1.02
2022-12-31T08:14:24.599Z,1.00
2022-12-31T08:16:51.845Z,0.40
2022-12-31T08:19:25.684Z,1.65
2022-12-31T08:22:09.792Z,0.60
2022-12-31T08:24:51.073Z,1.33
2022-12-31T08:27:25.864Z,1.45
2022-12-31T08:30:01.450Z,1.40
2022-12-31T08:32:35.315Z,0.25
2022-12-31T08:35:14.691Z,1.02
2022-12-31T08:37:48.499Z,0.63
2022-12-31T08:40:24.316Z,1.17
2022-12-31T08:43:20.578Z,1.50
2022-12-31T08:45:49.547Z,0.55
2022-12-31T08:48:26.866Z,0.43
2022-12-31T08:50:55.688Z,0.32
2022-12-31T08:53:22.975Z,0.65
2022-12-31T08:55:55.115Z,0.35
2022-12-31T08:58:37.999Z,1.13
2022-12-31T09:01:07.980Z,1.77
2022-12-31T09:04:00.025Z,1.13
2022-12-31T09:06:33.131Z,0.38
2022-12-31T09:09:09.286Z,0.57
2022-12-31T09:11:49.666Z,1.48
2022-12-31T09:14:29.287Z,0.85
2022-12-31T09:17:02.456Z,0.32
2022-12-31T09:19:29.254Z,2.08
2022-12-31T09:21:57.888Z,0.82
2022-12-31T09:24:25.267Z,1.20
2022-12-31T09:27:04.716Z,1.77
2022-12-31T09:29:43.521Z,3.88
2022-12-31T09:32:23.453Z,1.70
2022-12-31T09:34:55.405Z,1.33
2022-12-31T09:37:45.477Z,1.35
2022-12-31T09:40:54.065Z,0.45
2022-12-31T09:44:00.750Z,1.58
2022-12-31T09:46:57.871Z,1.75
2022-12-31T09:50:01.391Z,1.67
2022-12-31T09:52:41.591Z,1.20
2022-12-31T09:55:29.242Z,1.88
2022-12-31T09:58:07.523Z,1.25
2022-12-31T10:00:43.349Z,1.50
2022-12-31T10:03:36.562Z,1.92
2022-12-31T10:06:20.092Z,2.63
2022-12-31T10:09:34.527Z,2.95
2022-12-31T10:12:25.043Z,3.25
2022-12-31T10:15:09.631Z,1.08
2022-12-31T10:17:49.142Z,1.35
2022-12-31T10:20:41.556Z,1.80
2022-12-31T10:23:54.198Z,2.75
2022-12-31T10:26:37.157Z,2.08
2022-12-31T10:29:18.259Z,1.73
2022-12-31T10:31:56.237Z,3.72
2022-12-31T10:34:31.577Z,1.73
2022-12-31T10:37:06.164Z,1.85
2022-12-31T10:39:52.510Z,1.73
2022-12-31T10:42:59.877Z,3.88
2022-12-31T10:45:55.987Z,5.05
2022-12-31T10:48:43.313Z,3.92
2022-12-31T10:51:32.921Z,3.85
2022-12-31T10:54:38.564Z,5.65
2022-12-31T10:57:34.977Z,6.22
2022-12-31T11:00:13.098Z,3.42
2022-12-31T11:03:19.990Z,2.92
2022-12-31T11:06:14.974Z,1.90
2022-12-31T11:09:00.771Z,2.25
2022-12-31T11:11:34.172Z,2.03
2022-12-31T11:14:37.161Z,2.78
2022-12-31T11:17:16.588Z,2.28
2022-12-31T11:19:57.870Z,1.98
2022-12-31T11:22:41.947Z,3.13
2022-12-31T11:25:23.726Z,1.40
2022-12-31T11:28:07.568Z,1.95
2022-12-31T11:30:46.090Z,3.75
2022-12-31T11:33:25.322Z,3.33
2022-12-31T11:36:12.476Z,3.60
2022-12-31T11:38:45.612Z,7.72
2022-12-31T11:41:19.562Z,3.45
2022-12-31T11:43:55.819Z,2.80
2022-12-31T11:46:43.738Z,3.28
2022-12-31T11:49:30.466Z,3.35
2022-12-31T11:52:44.938Z,2.67
2022-12-31T11:55:47.659Z,2.53
2022-12-31T11:58:16.825Z,4.50
2022-12-31T12:00:48.715Z,2.22
2022-12-31T12:03:15.735Z,4.60
2022-12-31T12:05:42.546Z,3.92
2022-12-31T12:08:09.340Z,3.85
2022-12-31T12:10:43.386Z,2.75
2022-12-31T12:13:13.417Z,3.08
2022-12-31T12:15:45.664Z,3.22
2022-12-31T12:18:25.239Z,3.58
2022-12-31T12:20:52.009Z,3.67
2022-12-31T12:23:24.628Z,2.42
2022-12-31T12:25:53.424Z,2.70
2022-12-31T12:28:21.978Z,4.32
2022-12-31T12:30:55.462Z,4.53
2022-12-31T12:33:22.209Z,2.85
2022-12-31T12:35:50.979Z,8.63
2022-12-31T12:38:20.024Z,6.93
2022-12-31T12:40:57.109Z,4.32
2022-12-31T12:43:27.196Z,6.10
2022-12-31T12:45:58.888Z,8.35
2022-12-31T12:48:32.666Z,7.07
2022-12-31T12:51:00.157Z,10.27
2022-12-31T12:53:39.152Z,8.77
2022-12-31T12:56:16.530Z,8.60
2022-12-31T13:01:24.302Z,6.72
2022-12-31T13:04:38.147Z,4.55
2022-12-31T13:07:23.447Z,4.20
2022-12-31T13:10:06.316Z,2.97
2022-12-31T13:13:13.773Z,4.80
2022-12-31T13:15:34.280Z,4.90
2022-12-31T13:18:12.648Z,4.05
2022-12-31T13:20:44.791Z,5.63
2022-12-31T13:23:22.641Z,4.00
2022-12-31T13:26:02.188Z,4.13
2022-12-31T13:28:32.224Z,4.15
2022-12-31T13:31:11.764Z,4.22
2022-12-31T13:33:42.984Z,3.83
2022-12-31T13:36:13.686Z,4.05
2022-12-31T13:38:44.746Z,6.63
2022-12-31T13:41:17.079Z,3.38
2022-12-31T13:43:54.574Z,3.15
2022-12-31T13:46:34.100Z,4.35
2022-12-31T13:49:04.937Z,3.28
2022-12-31T13:51:41.934Z,3.63
2022-12-31T13:54:22.453Z,3.50
2022-12-31T13:56:52.152Z,2.88
2022-12-31T13:59:26.483Z,3.45
2022-12-31T14:02:02.890Z,4.35
2022-12-31T14:04:36.307Z,4.80
2022-12-31T14:07:09.844Z,4.47
2022-12-31T14:09:37.864Z,3.88
2022-12-31T14:12:17.862Z,2.47
2022-12-31T14:14:53.646Z,3.80
2022-12-31T14:17:28.309Z,5.72
2022-12-31T14:20:06.719Z,3.17
2022-12-31T14:22:41.631Z,3.30
2022-12-31T14:25:20.127Z,2.65
2022-12-31T14:27:48.419Z,9.75
2022-12-31T14:30:20.093Z,6.15
2022-12-31T14:33:18.491Z,4.18
2022-12-31T14:36:21.883Z,4.30
2022-12-31T14:39:01.186Z,6.72
2022-12-31T14:41:44.139Z,4.38
2022-12-31T14:44:27.075Z,4.57
2022-12-31T14:47:12.827Z,3.65
2022-12-31T14:49:50.151Z,4.93
2022-12-31T14:52:22.501Z,5.80
2022-12-31T14:55:01.605Z,5.30
2022-12-31T14:57:54.299Z,3.70
2022-12-31T15:00:30.782Z,6.03
2022-12-31T15:03:01.603Z,3.80
2022-12-31T15:05:30.620Z,5.75
2022-12-31T15:08:21.608Z,5.82
2022-12-31T15:11:04.466Z,5.20
2022-12-31T15:13:45.647Z,5.28
2022-12-31T15:16:35.237Z,7.65
2022-12-31T15:19:31.084Z,4.95
2022-12-31T15:22:05.679Z,3.70
2022-12-31T15:24:32.961Z,5.47
2022-12-31T15:27:02.400Z,5.15
2022-12-31T15:29:32.932Z,5.13
2022-12-31T15:32:03.447Z,4.18
2022-12-31T15:34:34.839Z,4.78
2022-12-31T15:37:03.820Z,4.80
2022-12-31T15:39:40.563Z,4.22
2022-12-31T15:42:37.876Z,3.92
2022-12-31T15:45:13.530Z,5.88
2022-12-31T15:47:43.873Z,5.43
2022-12-31T15:50:18.909Z,5.35
2022-12-31T15:52:51.283Z,9.35
2022-12-31T15:55:27.196Z,8.13
2022-12-31T15:57:58.435Z,6.85
2022-12-31T16:00:25.255Z,10.05
2022-12-31T16:02:55.364Z,9.38
2022-12-31T16:05:25.873Z,6.60
2022-12-31T16:07:54.528Z,7.25
2022-12-31T16:10:25.308Z,6.07
2022-12-31T16:12:53.731Z,5.20
2022-12-31T16:15:23.641Z,5.35
2022-12-31T16:18:02.589Z,3.80
2022-12-31T16:20:33.625Z,5.85
2022-12-31T16:23:03.137Z,5.43
2022-12-31T16:25:32.917Z,10.48
2022-12-31T16:28:02.579Z,16.00
2022-12-31T16:30:31.395Z,13.45
2022-12-31T16:33:00.593Z,11.07
2022-12-31T16:35:29.519Z,11.13
2022-12-31T16:38:12.461Z,12.65
2022-12-31T16:40:40.387Z,9.88
2022-12-31T16:43:24.269Z,7.60
2022-12-31T16:45:52.442Z,8.43
2022-12-31T16:48:21.191Z,7.43
2022-12-31T16:50:50.705Z,5.55
2022-12-31T16:53:22.350Z,5.18
2022-12-31T16:55:55.062Z,5.85
2022-12-31T16:58:28.333Z,6.43
2022-12-31T17:01:00.336Z,5.45
2022-12-31T17:03:29.873Z,5.82
2022-12-31T17:06:02.068Z,7.30
2022-12-31T17:08:40.028Z,12.05
2022-12-31T17:11:23.236Z,14.80
2022-12-31T17:13:59.050Z,10.95
2022-12-31T17:16:26.582Z,8.18
2022-12-31T17:18:53.593Z,5.65
2022-12-31T17:21:22.931Z,5.90
2022-12-31T17:23:55.561Z,11.13
2022-12-31T17:26:25.631Z,8.15
2022-12-31T17:28:54.102Z,5.55
2022-12-31T17:31:33.568Z,20.95
2022-12-31T17:34:22.452Z,9.60
2022-12-31T17:37:00.416Z,7.80
2022-12-31T17:39:42.645Z,6.25
2022-12-31T17:42:11.234Z,4.90
2022-12-31T17:44:42.523Z,5.53
2022-12-31T17:47:13.892Z,6.18
2022-12-31T17:52:12.990Z,11.30
2022-12-31T17:54:41.645Z,9.65
2022-12-31T17:57:21.675Z,11.93
2022-12-31T17:59:48.431Z,11.20
2022-12-31T18:02:15.280Z,12.88
2022-12-31T18:04:42.113Z,10.57
2022-12-31T18:07:09.099Z,8.05
2022-12-31T18:09:35.850Z,7.55
2022-12-31T18:12:05.998Z,8.82
2022-12-31T18:14:33.498Z,10.07
2022-12-31T18:17:00.864Z,7.57
2022-12-31T18:20:02.850Z,7.05
2022-12-31T18:22:16.183Z,6.75
2022-12-31T18:24:43.421Z,5.78
2022-12-31T18:27:16.848Z,7.78
2022-12-31T18:29:43.622Z,6.53
2022-12-31T18:32:20.117Z,5.60
2022-12-31T18:34:47.081Z,7.78
2022-12-31T18:37:21.284Z,6.65
2022-12-31T18:39:48.667Z,4.70
2022-12-31T18:42:18.616Z,4.95
2022-12-31T18:44:49.251Z,8.18
2022-12-31T18:47:17.843Z,9.40
2022-12-31T18:49:45.022Z,11.00
2022-12-31T18:52:14.296Z,7.57
2022-12-31T18:54:41.305Z,7.93
2022-12-31T18:57:10.473Z,6.82
2022-12-31T18:59:39.743Z,8.38
2022-12-31T19:02:14.680Z,9.23
2022-12-31T19:04:41.734Z,12.20
2022-12-31T19:07:08.624Z,7.40
2022-12-31T19:09:56.375Z,9.45
2022-12-31T19:12:22.392Z,12.90
2022-12-31T19:14:50.983Z,9.38
2022-12-31T19:17:17.982Z,9.35
2022-12-31T19:19:45.255Z,13.60
2022-12-31T19:22:16.398Z,11.95
2022-12-31T19:24:43.505Z,8.02
2022-12-31T19:27:10.344Z,8.45
2022-12-31T19:29:39.490Z,7.13
2022-12-31T19:32:07.701Z,7.68
2022-12-31T19:34:34.998Z,9.40
2022-12-31T19:37:02.016Z,8.23
2022-12-31T19:39:28.807Z,7.57
2022-12-31T19:41:59.150Z,7.00
2022-12-31T19:44:27.243Z,10.32
2022-12-31T19:46:55.410Z,7.03
2022-12-31T19:49:24.111Z,6.05
2022-12-31T19:51:51.054Z,6.10
2022-12-31T19:54:18.730Z,18.70
2022-12-31T19:56:45.425Z,6.65
2022-12-31T19:59:12.860Z,5.82
2022-12-31T20:01:39.949Z,9.63
2022-12-31T20:04:06.879Z,9.20
2022-12-31T20:06:35.292Z,7.57
2022-12-31T20:09:02.944Z,7.45
2022-12-31T20:11:29.920Z,8.05
2022-12-31T20:13:56.670Z,10.20
2022-12-31T20:16:26.883Z,6.85
2022-12-31T20:18:54.058Z,7.78
2022-12-31T20:21:23.188Z,5.80
2022-12-31T20:23:53.195Z,9.00
2022-12-31T20:26:22.113Z,5.75
2022-12-31T20:28:49.436Z,9.55
2022-12-31T20:31:18.878Z,7.20
2022-12-31T20:33:46.172Z,5.63
2022-12-31T20:36:14.876Z,6.43
2022-12-31T20:38:41.931Z,6.57
2022-12-31T20:41:13.020Z,7.43
2022-12-31T20:43:40.358Z,13.40
2022-12-31T20:46:14.354Z,9.18
2022-12-31T20:48:44.728Z,6.82
2022-12-31T20:51:12.869Z,7.93
2022-12-31T20:53:40.032Z,10.68
2022-12-31T20:56:11.284Z,9.25
2022-12-31T20:58:39.559Z,9.38
2022-12-31T21:01:08.301Z,7.90
2022-12-31T21:06:23.122Z,9.38
2022-12-31T21:08:51.673Z,6.30
2022-12-31T21:11:36.959Z,7.57
2022-12-31T21:14:05.243Z,5.32
2022-12-31T21:16:32.243Z,6.60
2022-12-31T21:18:59.160Z,7.63
2022-12-31T21:21:25.994Z,7.43
2022-12-31T21:23:52.838Z,6.25
2022-12-31T21:26:19.991Z,6.57
2022-12-31T21:28:46.845Z,6.10
2022-12-31T21:31:16.151Z,9.40
2022-12-31T21:33:45.318Z,10.63
2022-12-31T21:36:12.414Z,10.85
2022-12-31T21:38:39.602Z,7.40
2022-12-31T21:41:08.239Z,7.95
2022-12-31T21:43:36.534Z,7.95
2022-12-31T21:46:06.169Z,8.73
2022-12-31T21:48:34.414Z,5.60
2022-12-31T21:51:07.906Z,11.70
2022-12-31T21:53:37.534Z,11.25
2022-12-31T21:56:09.393Z,6.75
2022-12-31T21:58:36.323Z,6.35
2022-12-31T22:01:22.283Z,5.68
2022-12-31T22:03:50.784Z,7.10
2022-12-31T22:06:22.870Z,4.65
2022-12-31T22:08:51.605Z,12.55
2022-12-31T22:11:21.140Z,6.55
2022-12-31T22:13:55.423Z,7.15
2022-12-31T22:16:23.390Z,7.40
2022-12-31T22:18:55.853Z,7.15
2022-12-31T22:21:31.562Z,7.15
2022-12-31T22:24:03.500Z,6.68
2022-12-31T22:26:31.316Z,6.25
2022-12-31T22:28:59.697Z,5.78
2022-12-31T22:31:30.868Z,5.97
2022-12-31T22:33:59.800Z,7.72
2022-12-31T22:36:26.847Z,21.42
2022-12-31T22:38:59.382Z,12.07
2022-12-31T22:41:27.775Z,10.10
2022-12-31T22:44:03.153Z,7.13
2022-12-31T22:46:37.166Z,5.88
2022-12-31T22:49:06.674Z,6.88
2022-12-31T22:51:56.859Z,7.90
2022-12-31T22:54:27.456Z,5.97
2022-12-31T22:56:54.563Z,5.45
2022-12-31T22:59:21.959Z,7.97
2022-12-31T23:01:49.565Z,6.13
2022-12-31T23:04:24.499Z,13.10
2022-12-31T23:06:58.979Z,24.92
2022-12-31T23:09:44.665Z,24.20
2022-12-31T23:12:13.683Z,38.22
2022-12-31T23:15:01.285Z,49.92
2022-12-31T23:17:47.891Z,61.67
2022-12-31T23:20:38.916Z,74.75
2022-12-31T23:23:15.588Z,62.08
2022-12-31T23:25:55.662Z,47.38
2022-12-31T23:28:25.086Z,53.20
2022-12-31T23:30:53.857Z,51.80
2022-12-31T23:33:25.226Z,52.08
2022-12-31T23:38:49.999Z,38.13
2022-12-31T23:41:21.028Z,31.83
2022-12-31T23:43:57.033Z,25.58
2022-12-31T23:46:29.828Z,28.33
2022-12-31T23:48:59.404Z,21.70
2022-12-31T23:51:29.354Z,19.77
2022-12-31T23:53:57.988Z,19.55
2022-12-31T23:59:13.306Z,17.70
